Latest Weather Observations for Wattamolla

IDN60801

Issued at 8:03 am EST Monday 29 August 2016 (issued every 30 minutes, with the page automatically refreshed every 10 minutes)

About weather observations | Map of weather stations | Latest weather observations for NSW | Other Formats
Station Details ID: 066208 Name: WATTAMOLLA AWS Lat: -34.14 Lon: 151.12 Height: 44.0 m
Data from the previous 72 hours. | See also: Recent months for locations in New South Wales
Date/Time
EST
Temp
°C
App
Temp
°C
Dew
Point
°C
Rel
Hum
%
Delta-T
°C
Wind Press
QNH
hPa
Press
MSL
hPa
Rain since
9am
mm
Dir  Spd
km/h
Gust
km/h
Spd
kts
Gust
kts
29/08:00am - - - - - WSW 9 11 5 6 - - -
29/07:30am - - - - - WNW 11 13 6 7 - - -
29/07:00am - - - - - W 9 11 5 6 - - -
29/06:30am - - - - - NW 13 17 7 9 - - -
29/06:00am - - - - - W 13 15 7 8 - - -
29/05:30am - - - - - WNW 15 17 8 9 - - -
29/05:00am - - - - - W 17 19 9 10 - - -
29/04:30am - - - - - W 17 20 9 11 - - -
29/04:00am - - - - - WNW 20 24 11 13 - - -
29/03:30am - - - - - WNW 20 26 11 14 - - -
29/03:00am - - - - - WNW 24 28 13 15 - - -
29/02:30am - - - - - WNW 22 28 12 15 - - -
29/02:00am - - - - - WNW 24 30 13 16 - - -
29/01:30am - - - - - WNW 22 28 12 15 - - -
29/01:00am - - - - - WNW 22 26 12 14 - - -
29/12:30am - - - - - WNW 24 30 13 16 - - -
29/12:00am - - - - - WNW 20 24 11 13 - - -
 
Date/Time
EST
Temp
°C
App
Temp
°C
Dew
Point
°C
Rel
Hum
%
Delta-T
°C
Wind Press
QNH
hPa
Press
MSL
hPa
Rain since
9am
mm
Dir  Spd
km/h
Gust
km/h
Spd
kts
Gust
kts
28/11:30pm - - - - - WNW 22 26 12 14 - - -
28/11:00pm - - - - - NW 19 24 10 13 - - -
28/10:30pm - - - - - WNW 15 19 8 10 - - -
28/10:00pm - - - - - WNW 13 15 7 8 - - -
28/09:30pm - - - - - W 13 19 7 10 - - -
28/09:00pm - - - - - WNW 11 15 6 8 - - -
28/08:30pm - - - - - SW 13 15 7 8 - - -
28/08:00pm - - - - - WSW 15 15 8 8 - - -
28/07:30pm - - - - - WNW 13 15 7 8 - - -
28/07:00pm - - - - - NW 15 19 8 10 - - -
28/06:30pm - - - - - NW 15 17 8 9 - - -
28/06:00pm - - - - - NW 15 17 8 9 - - -
28/05:30pm - - - - - NW 15 17 8 9 - - -
28/05:00pm - - - - - NW 13 17 7 9 - - -
28/04:30pm - - - - - S 11 17 6 9 - - -
28/04:00pm - - - - - S 11 13 6 7 - - -
28/03:30pm - - - - - S 13 19 7 10 - - -
28/03:00pm - - - - - S 17 24 9 13 - - -
28/02:30pm - - - - - SSE 17 22 9 12 - - -
28/02:00pm - - - - - SSE 20 28 11 15 - - -
28/01:30pm - - - - - SSE 20 26 11 14 - - -
28/01:00pm - - - - - SSE 24 30 13 16 - - -
28/12:30pm - - - - - SSE 22 30 12 16 - - -
28/12:00pm - - - - - SSE 24 30 13 16 - - -
28/11:30am - - - - - SSE 22 28 12 15 - - -
28/11:00am - - - - - S 20 26 11 14 - - -
28/10:30am - - - - - S 22 28 12 15 - - -
28/10:00am - - - - - S 19 30 10 16 - - -
28/09:30am - - - - - SW 13 24 7 13 - - -
28/09:00am - - - - - SW 13 22 7 12 - - -
28/08:30am - - - - - WSW 13 22 7 12 - - -
28/08:00am - - - - - W 17 26 9 14 - - -
28/07:30am - - - - - NW 17 20 9 11 - - -
28/07:00am - - - - - WNW 13 20 7 11 - - -
28/06:30am - - - - - W 7 13 4 7 - - -
28/06:00am - - - - - WNW 11 20 6 11 - - -
28/05:30am - - - - - NW 13 24 7 13 - - -
28/05:00am - - - - - NW 9 11 5 6 - - -
28/04:30am - - - - - WSW 13 24 7 13 - - -
28/04:00am - - - - - WNW 13 19 7 10 - - -
28/03:30am - - - - - WNW 13 20 7 11 - - -
28/03:00am - - - - - W 19 30 10 16 - - -
28/02:30am - - - - - W 13 26 7 14 - - -
28/02:00am - - - - - W 17 26 9 14 - - -
28/01:30am - - - - - S 19 30 10 16 - - -
28/01:00am - - - - - SW 15 26 8 14 - - -
28/12:30am - - - - - WNW 26 37 14 20 - - -
28/12:00am - - - - - WNW 28 37 15 20 - - -
 
Date/Time
EST
Temp
°C
App
Temp
°C
Dew
Point
°C
Rel
Hum
%
Delta-T
°C
Wind Press
QNH
hPa
Press
MSL
hPa
Rain since
9am
mm
Dir  Spd
km/h
Gust
km/h
Spd
kts
Gust
kts
27/11:30pm - - - - - WNW 28 37 15 20 - - -
27/11:00pm - - - - - W 24 35 13 19 - - -
27/10:30pm - - - - - SW 17 26 9 14 - - -
27/10:00pm - - - - - W 17 26 9 14 - - -
27/09:30pm - - - - - WNW 15 19 8 10 - - -
27/09:00pm - - - - - WNW 19 22 10 12 - - -
27/08:30pm - - - - - NW 17 22 9 12 - - -
27/08:00pm - - - - - NW 17 19 9 10 - - -
27/07:30pm - - - - - NNW 19 20 10 11 - - -
27/07:00pm - - - - - N 19 22 10 12 - - -
27/06:30pm - - - - - N 17 19 9 10 - - -
27/06:00pm - - - - - N 17 20 9 11 - - -
27/05:30pm - - - - - N 13 17 7 9 - - -
27/05:00pm - - - - - NNE 15 22 8 12 - - -
27/04:30pm - - - - - NNE 17 22 9 12 - - -
27/04:00pm - - - - - NE 19 26 10 14 - - -
27/03:30pm - - - - - NE 17 28 9 15 - - -
27/03:00pm - - - - - N 15 24 8 13 - - -
27/02:30pm - - - - - NNW 15 22 8 12 - - -
27/02:00pm - - - - - N 13 22 7 12 - - -
27/01:30pm - - - - - NNW 15 26 8 14 - - -
27/01:00pm - - - - - NNW 15 26 8 14 - - -
27/12:30pm - - - - - NNW 13 22 7 12 - - -
27/12:00pm - - - - - NW 15 19 8 10 - - -
27/11:30am - - - - - NW 9 19 5 10 - - -
27/11:00am - - - - - NW 9 13 5 7 - - -
27/10:30am - - - - - W 11 15 6 8 - - -
27/10:00am - - - - - WNW 13 19 7 10 - - -
27/09:30am - - - - - W 15 22 8 12 - - -
27/09:00am - - - - - W 17 20 9 11 - - -
27/08:30am - - - - - W 19 26 10 14 - - -
27/08:00am - - - - - W 22 30 12 16 - - -
27/07:30am - - - - - W 28 33 15 18 - - -
27/07:00am - - - - - W 30 39 16 21 - - -
27/06:30am - - - - - W 30 37 16 20 - - -
27/06:00am - - - - - W 28 33 15 18 - - -
27/05:30am - - - - - W 24 30 13 16 - - -
27/05:00am - - - - - W 26 30 14 16 - - -
27/04:30am - - - - - W 26 30 14 16 - - -
27/04:00am - - - - - W 26 30 14 16 - - -
27/03:30am - - - - - WNW 15 19 8 10 - - -
27/03:00am - - - - - WNW 15 19 8 10 - - -
27/02:30am - - - - - NW 15 17 8 9 - - -
27/02:00am - - - - - WNW 13 17 7 9 - - -
27/01:30am - - - - - NW 15 19 8 10 - - -
27/01:00am - - - - - NW 11 13 6 7 - - -
27/12:30am - - - - - SSE 11 13 6 7 - - -
27/12:00am - - - - - SSE 19 26 10 14 - - -
 
Date/Time
EST
Temp
°C
App
Temp
°C
Dew
Point
°C
Rel
Hum
%
Delta-T
°C
Wind Press
QNH
hPa
Press
MSL
hPa
Rain since
9am
mm
Dir  Spd
km/h
Gust
km/h
Spd
kts
Gust
kts
26/11:30pm - - - - - S 22 32 12 17 - - -
26/11:00pm - - - - - W 19 22 10 12 - - -
26/10:30pm - - - - - W 17 17 9 9 - - -
26/10:00pm - - - - - SW 13 17 7 9 - - -
26/09:30pm - - - - - W 7 15 4 8 - - -
26/09:00pm - - - - - SE 13 19 7 10 - - -
26/08:40pm - - - - - SE 33 52 18 28 - - -
26/08:30pm - - - - - SSE 41 56 22 30 - - -
26/08:17pm - - - - - SSE 33 52 18 28 - - -
26/08:00pm - - - - - SSE 32 43 17 23 - - -
26/07:30pm - - - - - SSE 37 52 20 28 - - -
26/07:24pm - - - - - SSE 30 50 16 27 - - -
26/07:00pm - - - - - S 35 43 19 23 - - -
26/06:30pm - - - - - S 39 46 21 25 - - -
26/06:00pm - - - - - S 41 52 22 28 - - -
26/05:30pm - - - - - S 44 52 24 28 - - -
26/05:00pm - - - - - S 48 57 26 31 - - -
26/04:30pm - - - - - S 48 56 26 30 - - -
26/04:00pm - - - - - S 44 57 24 31 - - -
26/03:30pm - - - - - SSE 48 59 26 32 - - -
26/03:00pm - - - - - SSE 41 48 22 26 - - -
26/01:09pm - - - - - S 44 50 24 27 - - -
26/01:00pm - - - - - WNW 9 46 5 25 - - -
26/12:48pm - - - - - - 6 - 3 - - - -
26/12:30pm - - - - - S 39 52 21 28 - - -
26/12:00pm - - - - - S 32 41 17 22 - - -
26/11:30am - - - - - S 43 52 23 28 - - -
26/11:00am - - - - - S 43 52 23 28 - - -
26/10:30am - - - - - S 44 54 24 29 - - -
26/10:00am - - - - - S 39 54 21 29 - - -
26/09:30am - - - - - S 44 56 24 30 - - -
26/09:00am - - - - - S 41 54 22 29 - - -
26/08:33am - - - - - S 30 52 16 28 - - -
26/08:30am - - - - - S 32 46 17 25 - - -

Other Formats:

Comma delimited format used in spreadsheet applications
http://www.bom.gov.au/fwo/IDN60801/IDN60801.95752.axf

JavaScript Object Notation format (JSON) in row-major order
http://www.bom.gov.au/fwo/IDN60801/IDN60801.95752.json